Erlands Point, Washington
Current Conditions -  °F | °C
As of 7:15 PM on Tuesday 21 Oct 2014 (Local Time) from KPWT Reporting Station
Overcast Overcast  
Wind Chill: 57°   Ceiling: 5000
Heat Index: 57°   Visibility: 10mi
Dew Point: 50°   Wind: 8mph
Humidity: 77%   Direction: 170°S
Pressure: 29.85"   Gusts: NA
Location:  47.5691°N, 122.818°W
Report Text: KPWT 220215Z AUTO 17007KT 150V210 10SM OVC050 14/10 A2985 RMK AO1
Loading
Personal Weather Stations






























Interactive Weather Map
Tropical Storm Tracking
New forecast layout! Learn more

10-Day Weather Forecast

Advertisements
Track Severe Weather on mobile